createdAt,value
2019-05-28T00:03:00.648Z,5.53
2019-05-28T00:07:02.808Z,3.40
2019-05-28T00:11:04.847Z,2.30
2019-05-28T00:15:07.264Z,3.03
2019-05-28T00:19:09.755Z,3.07
2019-05-28T00:23:11.851Z,2.83
2019-05-28T00:27:13.971Z,3.37
2019-05-28T00:31:17.133Z,3.00
2019-05-28T00:35:19.546Z,4.10
2019-05-28T00:39:21.631Z,4.10
2019-05-28T00:43:24.036Z,5.93
2019-05-28T00:47:26.408Z,3.13
2019-05-28T00:51:28.909Z,7.33
2019-05-28T00:55:31.147Z,4.30
2019-05-28T00:59:34.735Z,4.20
2019-05-28T01:03:36.822Z,6.30
2019-05-28T01:07:38.939Z,5.87
2019-05-28T01:11:41.129Z,8.87
2019-05-28T01:15:43.551Z,9.07
2019-05-28T01:19:45.677Z,8.43
2019-05-28T01:23:47.982Z,10.53
2019-05-28T01:27:50.121Z,9.13
2019-05-28T01:31:52.258Z,8.93
2019-05-28T01:35:54.358Z,7.23
2019-05-28T01:39:56.865Z,6.63
2019-05-28T01:43:58.908Z,10.47
2019-05-28T01:48:01.051Z,7.47
2019-05-28T01:52:03.199Z,6.80
2019-05-28T01:56:05.349Z,9.13
2019-05-28T02:00:07.918Z,7.43
2019-05-28T02:04:10.381Z,4.87
2019-05-28T02:08:12.509Z,11.00
2019-05-28T02:12:15.752Z,9.87
2019-05-28T02:16:18.103Z,6.93
2019-05-28T02:20:21.583Z,7.20
2019-05-28T02:24:23.896Z,7.37
2019-05-28T02:28:26.283Z,10.53
2019-05-28T02:32:28.144Z,7.67
2019-05-28T02:36:30.399Z,8.40
2019-05-28T02:40:32.388Z,7.80
2019-05-28T02:44:34.516Z,9.70
2019-05-28T02:48:36.635Z,9.03
2019-05-28T02:52:39.569Z,10.03
2019-05-28T02:56:43.744Z,10.80
2019-05-28T03:00:46.988Z,6.67
2019-05-28T03:04:49.449Z,8.17
2019-05-28T03:08:53.561Z,8.03
2019-05-28T03:12:55.716Z,6.10
2019-05-28T03:17:00.616Z,6.67
2019-05-28T03:21:04.475Z,9.07
2019-05-28T03:25:07.373Z,5.57
2019-05-28T03:29:09.653Z,6.27
2019-05-28T03:33:12.956Z,8.63
2019-05-28T03:37:15.415Z,10.37
2019-05-28T03:41:17.548Z,8.30
2019-05-28T03:45:19.632Z,7.23
2019-05-28T03:49:21.769Z,10.20
2019-05-28T03:53:23.921Z,10.40
2019-05-28T03:57:26.029Z,6.47
2019-05-28T04:01:28.641Z,7.37
2019-05-28T04:05:31.175Z,7.27
2019-05-28T04:09:34.026Z,6.57
2019-05-28T04:13:36.468Z,6.73
2019-05-28T04:17:38.815Z,8.60
2019-05-28T04:21:41.086Z,4.70
2019-05-28T04:25:43.180Z,6.80
2019-05-28T04:29:45.314Z,5.83
2019-05-28T04:33:47.437Z,10.33
2019-05-28T04:37:50.597Z,7.03
2019-05-28T04:41:52.772Z,5.00
2019-05-28T04:45:55.149Z,4.93
2019-05-28T04:49:57.466Z,4.87
2019-05-28T04:53:59.953Z,4.23
2019-05-28T04:58:02.080Z,4.83
2019-05-28T05:02:04.711Z,3.67
2019-05-28T05:06:07.006Z,4.47
2019-05-28T05:10:09.848Z,1.73
2019-05-28T05:14:11.899Z,2.57
2019-05-28T05:18:13.955Z,2.27
2019-05-28T05:22:15.948Z,2.03
2019-05-28T05:26:20.109Z,4.57
2019-05-28T05:30:23.589Z,2.60
2019-05-28T05:34:28.662Z,4.13
2019-05-28T05:38:30.733Z,2.83
2019-05-28T05:42:32.923Z,1.73
2019-05-28T05:46:35.086Z,1.23
2019-05-28T05:50:37.214Z,2.20
2019-05-28T05:54:39.391Z,3.87
2019-05-28T05:58:42.441Z,2.60
2019-05-28T06:02:44.472Z,4.80
2019-05-28T06:06:46.607Z,4.23
2019-05-28T06:10:48.641Z,2.20
2019-05-28T06:14:50.854Z,1.97
2019-05-28T06:18:52.998Z,0.77
2019-05-28T06:22:55.026Z,0.70
2019-05-28T06:26:57.215Z,0.70
2019-05-28T06:30:59.623Z,0.70
2019-05-28T06:35:01.746Z,1.50
2019-05-28T06:39:03.917Z,0.70
2019-05-28T06:43:05.870Z,0.50
2019-05-28T06:47:07.995Z,0.50
2019-05-28T06:51:10.134Z,2.40
2019-05-28T06:55:12.385Z,0.40
2019-05-28T06:59:14.498Z,0.40
2019-05-28T07:03:16.637Z,0.40
2019-05-28T07:07:18.752Z,0.60
2019-05-28T07:11:20.874Z,0.60
2019-05-28T07:15:24.321Z,0.97
2019-05-28T07:19:26.408Z,1.03
2019-05-28T07:23:28.479Z,0.60
2019-05-28T07:27:30.893Z,0.47
2019-05-28T07:31:32.971Z,0.70
2019-05-28T07:35:45.390Z,3.50
2019-05-28T07:39:39.072Z,8.57
2019-05-28T07:43:41.349Z,0.40
2019-05-28T07:47:43.354Z,0.70
2019-05-28T07:51:45.824Z,2.07
2019-05-28T07:55:48.180Z,1.03
2019-05-28T07:59:50.221Z,0.93
2019-05-28T08:03:52.344Z,3.90
2019-05-28T08:07:54.630Z,1.27
2019-05-28T08:11:56.807Z,2.57
2019-05-28T08:16:17.000Z,2.73
2019-05-28T08:20:02.688Z,1.70
2019-05-28T08:24:04.886Z,3.23
2019-05-28T08:28:19.178Z,4.10
2019-05-28T08:32:11.113Z,2.60
2019-05-28T08:36:13.252Z,4.37
2019-05-28T08:40:16.575Z,4.70
2019-05-28T08:44:18.542Z,6.47
2019-05-28T08:48:20.516Z,7.03
2019-05-28T08:52:22.754Z,5.23
2019-05-28T08:56:24.819Z,5.97
2019-05-28T09:00:45.946Z,4.27
2019-05-28T09:04:48.282Z,4.63
2019-05-28T09:08:50.643Z,3.53
2019-05-28T09:12:52.784Z,4.87
2019-05-28T09:16:54.902Z,3.77
2019-05-28T09:20:57.204Z,4.23
2019-05-28T09:24:59.404Z,4.30
2019-05-28T09:29:01.678Z,3.87
2019-05-28T09:33:05.017Z,2.90
2019-05-28T09:37:07.411Z,6.13
2019-05-28T09:41:09.434Z,4.07
2019-05-28T09:45:22.542Z,4.10
2019-05-28T09:49:15.942Z,5.53
2019-05-28T09:53:17.984Z,8.87
2019-05-28T09:57:19.777Z,5.37
2019-05-28T10:01:21.998Z,5.17
2019-05-28T10:05:23.988Z,7.73
2019-05-28T10:09:25.892Z,6.63
2019-05-28T10:13:38.346Z,4.83
2019-05-28T10:17:32.038Z,6.13
2019-05-28T10:21:34.223Z,2.63
2019-05-28T10:25:36.388Z,11.30
2019-05-28T10:29:38.559Z,7.17
2019-05-28T10:33:40.850Z,5.83
2019-05-28T10:37:42.987Z,10.20
2019-05-28T10:41:45.238Z,7.83
2019-05-28T10:45:47.470Z,6.03
2019-05-28T10:49:51.109Z,5.47
2019-05-28T10:53:53.339Z,7.83
2019-05-28T10:57:55.256Z,6.23
2019-05-28T11:01:57.396Z,6.00
2019-05-28T11:06:00.429Z,4.97
2019-05-28T11:10:02.595Z,6.13
2019-05-28T11:14:06.011Z,5.47
2019-05-28T11:18:08.520Z,5.23
2019-05-28T11:22:11.131Z,12.30
2019-05-28T11:26:13.251Z,4.63
2019-05-28T11:30:18.354Z,7.07
2019-05-28T11:34:20.601Z,5.40
2019-05-28T11:38:22.693Z,4.33
2019-05-28T11:42:24.818Z,5.67
2019-05-28T11:46:27.471Z,4.03
2019-05-28T11:50:29.691Z,4.93
2019-05-28T11:54:32.031Z,3.37
2019-05-28T11:58:34.144Z,6.53
2019-05-28T12:02:36.395Z,3.93
2019-05-28T12:06:38.571Z,4.87
2019-05-28T12:10:40.771Z,3.70
2019-05-28T12:14:44.057Z,4.23
2019-05-28T12:18:46.326Z,8.27
2019-05-28T12:22:48.456Z,9.73
2019-05-28T12:26:50.616Z,5.40
2019-05-28T12:30:52.619Z,6.07
2019-05-28T12:34:54.635Z,6.70
2019-05-28T12:38:56.869Z,4.53
2019-05-28T12:43:00.645Z,7.03
2019-05-28T12:47:02.752Z,5.70
2019-05-28T12:51:05.021Z,2.97
2019-05-28T12:55:07.815Z,3.93
2019-05-28T12:59:09.761Z,4.90
2019-05-28T13:03:12.572Z,7.57
2019-05-28T13:07:14.337Z,7.37
2019-05-28T13:11:16.182Z,11.80
2019-05-28T13:15:19.826Z,5.80
2019-05-28T13:19:21.577Z,4.27
2019-05-28T13:23:23.606Z,6.60
2019-05-28T13:27:25.612Z,3.93
2019-05-28T13:31:27.479Z,6.27
2019-05-28T13:35:30.011Z,3.10
2019-05-28T13:39:32.435Z,4.73
2019-05-28T13:43:34.715Z,3.73
2019-05-28T13:47:36.901Z,6.27
2019-05-28T13:51:38.998Z,3.93
2019-05-28T13:55:41.328Z,4.57
2019-05-28T13:59:43.112Z,5.53
2019-05-28T14:03:45.434Z,5.57
2019-05-28T14:07:47.198Z,6.03
2019-05-28T14:11:49.018Z,3.73
2019-05-28T14:15:50.837Z,10.43
2019-05-28T14:19:52.957Z,7.00
2019-05-28T14:23:54.707Z,4.53
2019-05-28T14:27:56.526Z,7.67
2019-05-28T14:31:58.282Z,7.10
2019-05-28T14:36:00.126Z,5.10
2019-05-28T14:40:03.014Z,10.17
2019-05-28T14:44:05.038Z,7.23
2019-05-28T14:48:06.907Z,9.70
2019-05-28T14:52:08.733Z,5.90
2019-05-28T14:56:10.739Z,6.43
2019-05-28T15:00:14.681Z,5.87
2019-05-28T15:04:16.857Z,4.13
2019-05-28T15:08:18.931Z,6.07
2019-05-28T15:12:20.906Z,6.43
2019-05-28T15:16:22.906Z,5.90
2019-05-28T15:20:25.203Z,5.20
2019-05-28T15:24:27.366Z,8.47
2019-05-28T15:28:29.348Z,10.47
2019-05-28T15:32:31.434Z,3.30
2019-05-28T15:36:33.465Z,7.07
2019-05-28T15:40:35.697Z,6.40
2019-05-28T15:44:37.993Z,6.50
2019-05-28T15:48:40.135Z,6.93
2019-05-28T15:52:42.511Z,6.70
2019-05-28T15:56:46.594Z,12.00
2019-05-28T16:00:48.911Z,2.77
2019-05-28T16:04:51.015Z,4.83
2019-05-28T16:08:53.361Z,5.83
2019-05-28T16:12:55.572Z,5.87
2019-05-28T16:16:57.600Z,5.83
2019-05-28T16:20:59.718Z,4.77
2019-05-28T16:25:01.937Z,5.53
2019-05-28T16:29:04.080Z,6.10
2019-05-28T16:33:06.127Z,7.80
2019-05-28T16:37:08.116Z,7.30
2019-05-28T16:41:10.380Z,6.63
2019-05-28T16:45:13.825Z,4.90
2019-05-28T16:49:15.960Z,7.30
2019-05-28T16:53:18.010Z,8.93
2019-05-28T16:57:20.080Z,6.77
2019-05-28T17:01:23.228Z,6.97
2019-05-28T17:05:25.290Z,5.90
2019-05-28T17:09:27.426Z,4.37
2019-05-28T17:13:29.572Z,6.77
2019-05-28T17:17:31.646Z,5.83
2019-05-28T17:21:33.807Z,3.40
2019-05-28T17:25:36.146Z,7.10
2019-05-28T17:29:38.349Z,7.00
2019-05-28T17:33:40.531Z,7.73
2019-05-28T17:37:42.685Z,8.20
2019-05-28T17:41:46.287Z,10.07
2019-05-28T17:45:49.387Z,9.10
2019-05-28T17:49:52.575Z,6.03
2019-05-28T17:53:54.889Z,9.37
2019-05-28T17:57:57.222Z,5.10
2019-05-28T18:01:59.531Z,4.00
2019-05-28T18:06:01.705Z,9.30
2019-05-28T18:10:03.940Z,7.10
2019-05-28T18:14:06.272Z,8.43
2019-05-28T18:18:08.310Z,9.80
2019-05-28T18:22:10.510Z,8.00
2019-05-28T18:26:12.826Z,8.70
2019-05-28T18:30:16.271Z,5.00
2019-05-28T18:34:18.471Z,5.50
2019-05-28T18:38:20.847Z,8.10
2019-05-28T18:42:23.231Z,7.23
2019-05-28T18:46:26.969Z,11.17
2019-05-28T18:50:29.014Z,9.10
2019-05-28T18:54:31.121Z,10.80
2019-05-28T18:58:35.699Z,8.20
2019-05-28T19:02:37.530Z,6.33
2019-05-28T19:06:39.798Z,7.07
2019-05-28T19:10:41.983Z,9.23
2019-05-28T19:14:44.106Z,8.63
2019-05-28T19:18:46.165Z,9.07
2019-05-28T19:22:48.265Z,12.87
2019-05-28T19:26:50.506Z,11.17
2019-05-28T19:30:52.837Z,12.47
2019-05-28T19:34:55.224Z,13.00
2019-05-28T19:38:58.720Z,14.30
2019-05-28T19:43:00.786Z,10.70
2019-05-28T19:47:03.076Z,16.10
2019-05-28T19:51:06.516Z,6.60
2019-05-28T19:55:09.018Z,15.07
2019-05-28T19:59:11.307Z,14.20
2019-05-28T20:03:14.359Z,6.57
2019-05-28T20:07:16.807Z,12.60
2019-05-28T20:11:18.947Z,19.30
2019-05-28T20:15:23.717Z,11.63
2019-05-28T20:19:25.430Z,7.53
2019-05-28T20:23:27.574Z,13.30
2019-05-28T20:27:29.822Z,8.23
2019-05-28T20:31:32.118Z,11.77
2019-05-28T20:35:34.367Z,14.20
2019-05-28T20:39:36.300Z,12.70
2019-05-28T20:43:38.609Z,10.93
2019-05-28T20:47:40.834Z,13.73
2019-05-28T20:51:42.994Z,13.13
2019-05-28T20:55:45.282Z,22.03
2019-05-28T20:59:47.462Z,12.90
2019-05-28T21:03:49.806Z,12.00
2019-05-28T21:07:53.103Z,11.70
2019-05-28T21:11:56.656Z,15.57
2019-05-28T21:15:59.052Z,14.17
2019-05-28T21:20:01.237Z,8.60
2019-05-28T21:24:03.365Z,21.47
2019-05-28T21:28:05.496Z,10.70
2019-05-28T21:32:07.596Z,13.60
2019-05-28T21:36:09.774Z,12.50
2019-05-28T21:40:12.795Z,12.20
2019-05-28T21:44:15.134Z,14.30
2019-05-28T21:48:17.261Z,13.03
2019-05-28T21:52:19.679Z,11.93
2019-05-28T21:56:21.946Z,12.40
2019-05-28T22:00:37.748Z,16.07
2019-05-28T22:04:41.418Z,18.30
2019-05-28T22:08:43.831Z,10.40
2019-05-28T22:12:46.286Z,17.43
2019-05-28T22:16:48.790Z,11.03
2019-05-28T22:20:53.308Z,11.17
2019-05-28T22:24:56.329Z,10.90
2019-05-28T22:28:59.449Z,11.43
2019-05-28T22:33:02.302Z,11.03
2019-05-28T22:37:04.639Z,11.90
2019-05-28T22:41:08.598Z,11.87
2019-05-28T22:45:11.208Z,12.83
2019-05-28T22:49:14.054Z,10.97
2019-05-28T22:53:16.373Z,13.10
2019-05-28T22:57:18.589Z,12.47
2019-05-28T23:01:20.683Z,10.67
2019-05-28T23:05:22.886Z,13.13
2019-05-28T23:09:25.021Z,12.90
2019-05-28T23:13:27.158Z,18.43
2019-05-28T23:17:29.376Z,14.37
2019-05-28T23:21:31.711Z,14.37
2019-05-28T23:25:33.929Z,17.17
2019-05-28T23:29:36.048Z,14.70
2019-05-28T23:33:38.542Z,17.17
2019-05-28T23:37:40.954Z,14.37
2019-05-28T23:41:43.258Z,12.43
2019-05-28T23:45:45.367Z,12.07
2019-05-28T23:49:47.445Z,12.33
2019-05-28T23:53:49.962Z,17.07
2019-05-28T23:57:52.122Z,15.80
